Airfield :
LOGIN :

Register | Disclaimer

   EN    FR    IT 

 










Legend :    VFR   Marginal VFR   IFR   Intensive IFR   Very Intensive IFR
Visi :
Ceiling :
>= 8 km
>= 3000ft
5 to 8 km
1000 to 3000 ft
1500m to 5 km
500 to 1000 ft
800 to 1500m
200 to 500 ft
< 800m
< 200 ft
Symbols :   Thunderstorms  Fog  Heavy snow  Heavy precipitations  Wind > 20 kt
SIGMETs :     Misc.  Thunderstorms  Icing  Turbulence  Mountain Waves  Volcanic Ashes






- Airport Elevation : 39 ft
- IATA code : TRS


LIPQ - Friuli Venezia Giulia Apt. Trieste

CURRENT METAR :
  • 191050Z AUTO 12004KT 080V170 9999 FEW038/// SCT046/// 24/15 Q1011

EXPIRED METARs :
  • 191020Z AUTO VRB02KT 9999 BKN050/// BKN091/// 23/15 Q1012
  • 190950Z AUTO 14003KT 100V190 9999 BKN051/// BKN110/// 23/14 Q1012
  • 190920Z AUTO 10005KT 070V130 9999 BKN057/// 22/14 Q1012
  • 190850Z AUTO 10004KT 070V130 9999 BKN064/// 21/14 Q1012
  • 190820Z AUTO VRB02KT 9999 FEW029/// BKN061/// BKN099/// 21/14 Q1012

TAF TAF LIPQ
Valid from the 19 at 06:00 until the 20 at 06:00 UTC


190500Z 1906/2006 VRB05KT 9999 BKN060
TEMPO 1912/2002 4000 TSRA



MET'MAP, your aeronautical weather chart ! - Copyright ORBIFLY December 2007 - Disclaimer

ORBIFLY MET'MAP TEAM :

Programming & Development : Alexandra Zaïnal
Concept & original design : Baudouin d'Aumeries
Assistance for programming : Marc-Olivier Méhu
Technical & hardware support : Manuel Goepfert

Contact : metmap@orbifly.com




SOURCES & CREDITS :

   NOAA